TAIP08 YGAS-YBOK
Flight info
| Callsign | TAIP08 |
|---|---|
| Flight time | 1h 32m |
| Altitude | 4500 |
| Route | VFR |
| Aircraft | EC35/L-VGD/C |
Departure
| Time | 2026-04-27 09:15 |
|---|---|
| Airport | Gatton Airpark (YGAS) |
Arrival
| Time | 2026-04-27 10:48 |
|---|---|
| Airport | Oakey Army Aviation Centre (YBOK) |
| Time | Latitude | Longitude | Altitude | Speed | Heading |
|---|---|---|---|---|---|
| 2026-04-27 09:03 | -27.59019 | 152.25792 | 425 ft | 0 kts | 111° |
| 2026-04-27 09:05 | -27.59024 | 152.25794 | 445 ft | 1 kts | 135° |
| 2026-04-27 09:06 | -27.59035 | 152.25796 | 440 ft | 2 kts | 180° |
| 2026-04-27 09:06 | -27.59056 | 152.25758 | 463 ft | 7 kts | 277° |
| 2026-04-27 09:06 | -27.58975 | 152.25701 | 498 ft | 34 kts | 326° |
| 2026-04-27 09:06 | -27.58702 | 152.25606 | 648 ft | 54 kts | 328° |
| 2026-04-27 09:07 | -27.58282 | 152.25401 | 596 ft | 70 kts | 327° |
| 2026-04-27 09:07 | -27.57868 | 152.25163 | 570 ft | 67 kts | 327° |
| 2026-04-27 09:07 | -27.57478 | 152.24885 | 558 ft | 66 kts | 312° |
| 2026-04-27 09:07 | -27.57286 | 152.24437 | 567 ft | 65 kts | 265° |
| 2026-04-27 09:08 | -27.57415 | 152.23962 | 599 ft | 64 kts | 258° |
| 2026-04-27 09:08 | -27.57377 | 152.23465 | 620 ft | 64 kts | 278° |
| 2026-04-27 09:08 | -27.57240 | 152.22985 | 616 ft | 66 kts | 295° |
| 2026-04-27 09:08 | -27.57008 | 152.22539 | 624 ft | 65 kts | 298° |
| 2026-04-27 09:09 | -27.56783 | 152.22094 | 621 ft | 65 kts | 288° |
| 2026-04-27 09:09 | -27.56783 | 152.21603 | 629 ft | 63 kts | 249° |
| 2026-04-27 09:09 | -27.56964 | 152.21162 | 623 ft | 62 kts | 232° |
| 2026-04-27 09:09 | -27.57227 | 152.20784 | 623 ft | 61 kts | 219° |
| 2026-04-27 09:10 | -27.57549 | 152.20484 | 627 ft | 60 kts | 217° |
| 2026-04-27 09:10 | -27.57825 | 152.20137 | 627 ft | 61 kts | 240° |
| 2026-04-27 09:10 | -27.57902 | 152.19669 | 624 ft | 64 kts | 270° |
| 2026-04-27 09:10 | -27.57832 | 152.19176 | 623 ft | 64 kts | 277° |
| 2026-04-27 09:11 | -27.57723 | 152.18692 | 623 ft | 64 kts | 290° |
| 2026-04-27 09:11 | -27.57535 | 152.18232 | 624 ft | 65 kts | 291° |
| 2026-04-27 09:11 | -27.57384 | 152.17757 | 630 ft | 64 kts | 286° |
| 2026-04-27 09:11 | -27.57147 | 152.17322 | 629 ft | 65 kts | 302° |
| 2026-04-27 09:12 | -27.56879 | 152.16903 | 631 ft | 65 kts | 303° |
| 2026-04-27 09:12 | -27.56636 | 152.16475 | 626 ft | 65 kts | 288° |
| 2026-04-27 09:12 | -27.56497 | 152.15993 | 630 ft | 64 kts | 283° |
| 2026-04-27 09:12 | -27.56377 | 152.15510 | 625 ft | 65 kts | 282° |
| 2026-04-27 09:13 | -27.56250 | 152.15020 | 628 ft | 65 kts | 282° |
| 2026-04-27 09:13 | -27.56098 | 152.14544 | 625 ft | 67 kts | 297° |
| 2026-04-27 09:13 | -27.55863 | 152.14092 | 616 ft | 66 kts | 297° |
| 2026-04-27 09:13 | -27.55628 | 152.13654 | 617 ft | 66 kts | 298° |
| 2026-04-27 09:14 | -27.55394 | 152.13212 | 609 ft | 66 kts | 298° |
| 2026-04-27 09:14 | -27.55307 | 152.12724 | 607 ft | 64 kts | 266° |
| 2026-04-27 09:14 | -27.55293 | 152.12222 | 617 ft | 65 kts | 281° |
| 2026-04-27 09:14 | -27.55088 | 152.11773 | 610 ft | 66 kts | 307° |
| 2026-04-27 09:15 | -27.54936 | 152.11313 | 625 ft | 61 kts | 275° |
| 2026-04-27 09:15 | -27.54875 | 152.10836 | 672 ft | 62 kts | 281° |
| 2026-04-27 09:15 | -27.54779 | 152.10351 | 1033 ft | 65 kts | 281° |
| 2026-04-27 09:15 | -27.54646 | 152.09865 | 1416 ft | 65 kts | 286° |
| 2026-04-27 09:16 | -27.54484 | 152.09380 | 1789 ft | 68 kts | 287° |
| 2026-04-27 09:16 | -27.54318 | 152.08866 | 2150 ft | 73 kts | 286° |
| 2026-04-27 09:16 | -27.54131 | 152.08323 | 2347 ft | 74 kts | 285° |
| 2026-04-27 09:16 | -27.53944 | 152.07777 | 2434 ft | 75 kts | 285° |
| 2026-04-27 09:17 | -27.53758 | 152.07225 | 2470 ft | 76 kts | 285° |
| 2026-04-27 09:17 | -27.53573 | 152.06668 | 2485 ft | 76 kts | 285° |
| 2026-04-27 09:17 | -27.53390 | 152.06110 | 2494 ft | 76 kts | 285° |
| 2026-04-27 09:17 | -27.53208 | 152.05552 | 2499 ft | 76 kts | 285° |
| 2026-04-27 09:18 | -27.53025 | 152.04994 | 2499 ft | 76 kts | 285° |
| 2026-04-27 09:18 | -27.52842 | 152.04434 | 2500 ft | 76 kts | 285° |
| 2026-04-27 09:18 | -27.52662 | 152.03882 | 2499 ft | 76 kts | 285° |
| 2026-04-27 09:18 | -27.52483 | 152.03323 | 2500 ft | 75 kts | 284° |
| 2026-04-27 09:19 | -27.52290 | 152.02698 | 2692 ft | 91 kts | 286° |
| 2026-04-27 09:19 | -27.52071 | 152.02011 | 3068 ft | 95 kts | 286° |
| 2026-04-27 09:19 | -27.51838 | 152.01301 | 3448 ft | 98 kts | 287° |
| 2026-04-27 09:19 | -27.51603 | 152.00570 | 3757 ft | 99 kts | 286° |
| 2026-04-27 09:20 | -27.51381 | 151.99849 | 3893 ft | 98 kts | 285° |
| 2026-04-27 09:20 | -27.51164 | 151.99121 | 3952 ft | 98 kts | 285° |
| 2026-04-27 09:20 | -27.50940 | 151.98390 | 3978 ft | 99 kts | 285° |
| 2026-04-27 09:20 | -27.50723 | 151.97659 | 3991 ft | 98 kts | 285° |
| 2026-04-27 09:21 | -27.50582 | 151.97176 | 3996 ft | 98 kts | 285° |
| 2026-04-27 09:21 | -27.50370 | 151.96447 | 4003 ft | 97 kts | 284° |
| 2026-04-27 09:21 | -27.50090 | 151.95489 | 3995 ft | 97 kts | 285° |
| 2026-04-27 09:21 | -27.49945 | 151.95001 | 3997 ft | 97 kts | 285° |
| 2026-04-27 09:22 | -27.49734 | 151.94279 | 3996 ft | 97 kts | 285° |
| 2026-04-27 09:22 | -27.49533 | 151.93566 | 4001 ft | 97 kts | 285° |
| 2026-04-27 09:22 | -27.49338 | 151.92832 | 4003 ft | 98 kts | 285° |
| 2026-04-27 09:22 | -27.49148 | 151.92084 | 3998 ft | 99 kts | 285° |
| 2026-04-27 09:23 | -27.48964 | 151.91344 | 4003 ft | 99 kts | 285° |
| 2026-04-27 09:23 | -27.48778 | 151.90591 | 4007 ft | 100 kts | 285° |
| 2026-04-27 09:23 | -27.48594 | 151.89834 | 4004 ft | 100 kts | 285° |
| 2026-04-27 09:23 | -27.48413 | 151.89074 | 4008 ft | 101 kts | 284° |
| 2026-04-27 09:24 | -27.48235 | 151.88314 | 4005 ft | 102 kts | 284° |
| 2026-04-27 09:24 | -27.48052 | 151.87551 | 4001 ft | 100 kts | 285° |
| 2026-04-27 09:24 | -27.47869 | 151.86792 | 4031 ft | 101 kts | 285° |
| 2026-04-27 09:24 | -27.47683 | 151.86020 | 4033 ft | 103 kts | 284° |
| 2026-04-27 09:25 | -27.47490 | 151.85252 | 4026 ft | 102 kts | 285° |
| 2026-04-27 09:25 | -27.47298 | 151.84497 | 4033 ft | 101 kts | 285° |
| 2026-04-27 09:25 | -27.47106 | 151.83735 | 4034 ft | 101 kts | 285° |
| 2026-04-27 09:25 | -27.46915 | 151.82971 | 4031 ft | 101 kts | 285° |
| 2026-04-27 09:26 | -27.46725 | 151.82207 | 4033 ft | 101 kts | 285° |
| 2026-04-27 09:26 | -27.46537 | 151.81441 | 4029 ft | 102 kts | 285° |
| 2026-04-27 09:26 | -27.46346 | 151.80681 | 4036 ft | 101 kts | 285° |
| 2026-04-27 09:26 | -27.46154 | 151.79922 | 4035 ft | 100 kts | 285° |
| 2026-04-27 09:27 | -27.45963 | 151.79172 | 4031 ft | 99 kts | 285° |
| 2026-04-27 09:27 | -27.45774 | 151.78433 | 4030 ft | 99 kts | 285° |
| 2026-04-27 09:27 | -27.45583 | 151.77685 | 4031 ft | 99 kts | 285° |
| 2026-04-27 09:27 | -27.45393 | 151.76939 | 4034 ft | 99 kts | 285° |
| 2026-04-27 09:28 | -27.45208 | 151.76192 | 4032 ft | 99 kts | 285° |
| 2026-04-27 09:28 | -27.45026 | 151.75443 | 4029 ft | 99 kts | 284° |
| 2026-04-27 09:28 | -27.44846 | 151.74701 | 4033 ft | 99 kts | 284° |
| 2026-04-27 09:28 | -27.44665 | 151.73951 | 4031 ft | 99 kts | 284° |
| 2026-04-27 09:29 | -27.44485 | 151.73202 | 4029 ft | 99 kts | 284° |
| 2026-04-27 09:29 | -27.44305 | 151.72455 | 4027 ft | 99 kts | 285° |
| 2026-04-27 09:29 | -27.44123 | 151.71705 | 4024 ft | 99 kts | 285° |
| 2026-04-27 09:29 | -27.43942 | 151.70964 | 4028 ft | 99 kts | 285° |
| 2026-04-27 09:30 | -27.43758 | 151.70213 | 4026 ft | 99 kts | 285° |
| 2026-04-27 09:30 | -27.43575 | 151.69465 | 4024 ft | 99 kts | 285° |
| 2026-04-27 09:30 | -27.43391 | 151.68714 | 4029 ft | 99 kts | 285° |
| 2026-04-27 09:30 | -27.43207 | 151.67967 | 4025 ft | 99 kts | 285° |
| 2026-04-27 09:31 | -27.43025 | 151.67225 | 4025 ft | 99 kts | 285° |
| 2026-04-27 09:31 | -27.42840 | 151.66472 | 4023 ft | 100 kts | 285° |
| 2026-04-27 09:31 | -27.42656 | 151.65716 | 4026 ft | 100 kts | 285° |
| 2026-04-27 09:31 | -27.42471 | 151.64960 | 4024 ft | 100 kts | 285° |
| 2026-04-27 09:32 | -27.42289 | 151.64213 | 4021 ft | 100 kts | 285° |
| 2026-04-27 09:32 | -27.42104 | 151.63459 | 4002 ft | 100 kts | 285° |
| 2026-04-27 09:32 | -27.41922 | 151.62706 | 4010 ft | 99 kts | 285° |
| 2026-04-27 09:32 | -27.41749 | 151.61955 | 4009 ft | 99 kts | 285° |
| 2026-04-27 09:33 | -27.41577 | 151.61204 | 4009 ft | 99 kts | 285° |
| 2026-04-27 09:33 | -27.41405 | 151.60450 | 4007 ft | 99 kts | 285° |
| 2026-04-27 09:33 | -27.41235 | 151.59703 | 4003 ft | 100 kts | 285° |
| 2026-04-27 09:33 | -27.41062 | 151.58947 | 4004 ft | 99 kts | 285° |
| 2026-04-27 09:34 | -27.40891 | 151.58192 | 4004 ft | 99 kts | 284° |
| 2026-04-27 09:34 | -27.40719 | 151.57439 | 4003 ft | 99 kts | 284° |
| 2026-04-27 09:34 | -27.40549 | 151.56687 | 4004 ft | 99 kts | 284° |
| 2026-04-27 09:34 | -27.40380 | 151.55935 | 4000 ft | 99 kts | 284° |
| 2026-04-27 09:35 | -27.40213 | 151.55194 | 4003 ft | 99 kts | 284° |
| 2026-04-27 09:35 | -27.40043 | 151.54440 | 4003 ft | 99 kts | 284° |
| 2026-04-27 09:35 | -27.39872 | 151.53689 | 4004 ft | 99 kts | 284° |
| 2026-04-27 09:35 | -27.39702 | 151.52945 | 4003 ft | 99 kts | 284° |
| 2026-04-27 09:36 | -27.39528 | 151.52191 | 4002 ft | 99 kts | 284° |
| 2026-04-27 09:36 | -27.39354 | 151.51440 | 4005 ft | 99 kts | 284° |
| 2026-04-27 09:36 | -27.39179 | 151.50687 | 4005 ft | 99 kts | 284° |
| 2026-04-27 09:36 | -27.39008 | 151.49945 | 4005 ft | 99 kts | 285° |
| 2026-04-27 09:37 | -27.38837 | 151.49196 | 4004 ft | 99 kts | 285° |
| 2026-04-27 09:37 | -27.38667 | 151.48443 | 4008 ft | 99 kts | 285° |
| 2026-04-27 09:37 | -27.38498 | 151.47692 | 4005 ft | 99 kts | 284° |
| 2026-04-27 09:37 | -27.38327 | 151.46938 | 4005 ft | 99 kts | 284° |
| 2026-04-27 09:38 | -27.38155 | 151.46191 | 4003 ft | 98 kts | 284° |
| 2026-04-27 09:38 | -27.37982 | 151.45448 | 4004 ft | 98 kts | 284° |
| 2026-04-27 09:38 | -27.37810 | 151.44713 | 4005 ft | 98 kts | 284° |
| 2026-04-27 09:38 | -27.37637 | 151.43970 | 4006 ft | 98 kts | 285° |
| 2026-04-27 09:39 | -27.37466 | 151.43227 | 4004 ft | 98 kts | 285° |
| 2026-04-27 09:39 | -27.37298 | 151.42485 | 3999 ft | 98 kts | 285° |
| 2026-04-27 09:39 | -27.37133 | 151.41750 | 4005 ft | 98 kts | 285° |
| 2026-04-27 09:39 | -27.36967 | 151.40998 | 4006 ft | 99 kts | 285° |
| 2026-04-27 09:40 | -27.36801 | 151.40245 | 4005 ft | 99 kts | 284° |
| 2026-04-27 09:40 | -27.36635 | 151.39490 | 4000 ft | 99 kts | 284° |
| 2026-04-27 09:40 | -27.36466 | 151.38747 | 4008 ft | 99 kts | 284° |
| 2026-04-27 09:40 | -27.36293 | 151.37991 | 4008 ft | 99 kts | 284° |
| 2026-04-27 09:41 | -27.36119 | 151.37238 | 4009 ft | 99 kts | 284° |
| 2026-04-27 09:41 | -27.35946 | 151.36485 | 4004 ft | 99 kts | 284° |
| 2026-04-27 09:41 | -27.35772 | 151.35732 | 4002 ft | 99 kts | 284° |
| 2026-04-27 09:41 | -27.35598 | 151.34978 | 4002 ft | 99 kts | 284° |
| 2026-04-27 09:42 | -27.35428 | 151.34226 | 4008 ft | 99 kts | 284° |
| 2026-04-27 09:42 | -27.35210 | 151.33511 | 3998 ft | 97 kts | 308° |
| 2026-04-27 09:42 | -27.34699 | 151.33106 | 3689 ft | 90 kts | 1° |
| 2026-04-27 09:42 | -27.34080 | 151.33029 | 3321 ft | 87 kts | 9° |
| 2026-04-27 09:43 | -27.33475 | 151.32987 | 2943 ft | 88 kts | 10° |
| 2026-04-27 09:43 | -27.32861 | 151.32963 | 2697 ft | 88 kts | 10° |
| 2026-04-27 09:43 | -27.32246 | 151.32952 | 2586 ft | 89 kts | 11° |
| 2026-04-27 09:43 | -27.31636 | 151.32954 | 2542 ft | 89 kts | 12° |
| 2026-04-27 09:44 | -27.31015 | 151.32969 | 2527 ft | 88 kts | 11° |
| 2026-04-27 09:44 | -27.30403 | 151.32982 | 2515 ft | 89 kts | 12° |
| 2026-04-27 09:44 | -27.29788 | 151.32991 | 2514 ft | 88 kts | 14° |
| 2026-04-27 09:44 | -27.29177 | 151.33063 | 2512 ft | 88 kts | 20° |
| 2026-04-27 09:45 | -27.28576 | 151.33178 | 2509 ft | 87 kts | 20° |
| 2026-04-27 09:45 | -27.27985 | 151.33296 | 2508 ft | 86 kts | 20° |
| 2026-04-27 09:45 | -27.27401 | 151.33413 | 2508 ft | 86 kts | 21° |
| 2026-04-27 09:45 | -27.26812 | 151.33529 | 2507 ft | 87 kts | 20° |
| 2026-04-27 09:46 | -27.26216 | 151.33646 | 2505 ft | 86 kts | 19° |
| 2026-04-27 09:46 | -27.25639 | 151.33786 | 2504 ft | 84 kts | 22° |
| 2026-04-27 09:46 | -27.25217 | 151.34160 | 2317 ft | 77 kts | 71° |
| 2026-04-27 09:46 | -27.25068 | 151.34738 | 2136 ft | 77 kts | 76° |
| 2026-04-27 09:47 | -27.25029 | 151.35334 | 2058 ft | 78 kts | 101° |
| 2026-04-27 09:47 | -27.25251 | 151.35868 | 1814 ft | 76 kts | 124° |
| 2026-04-27 09:47 | -27.25583 | 151.36359 | 1635 ft | 84 kts | 128° |
| 2026-04-27 09:47 | -27.25953 | 151.36872 | 1564 ft | 85 kts | 128° |
| 2026-04-27 09:48 | -27.26331 | 151.37385 | 1533 ft | 85 kts | 129° |
| 2026-04-27 09:48 | -27.26707 | 151.37899 | 1522 ft | 84 kts | 130° |
| 2026-04-27 09:48 | -27.27083 | 151.38392 | 1511 ft | 82 kts | 131° |
| 2026-04-27 09:48 | -27.27448 | 151.38879 | 1506 ft | 82 kts | 131° |
| 2026-04-27 09:49 | -27.27824 | 151.39371 | 1509 ft | 82 kts | 130° |
| 2026-04-27 09:49 | -27.28189 | 151.39841 | 1504 ft | 81 kts | 131° |
| 2026-04-27 09:49 | -27.28552 | 151.40312 | 1506 ft | 81 kts | 131° |
| 2026-04-27 09:49 | -27.28931 | 151.40790 | 1505 ft | 82 kts | 131° |
| 2026-04-27 09:50 | -27.29301 | 151.41285 | 1499 ft | 83 kts | 131° |
| 2026-04-27 09:50 | -27.29671 | 151.41760 | 1505 ft | 79 kts | 127° |
| 2026-04-27 09:50 | -27.29886 | 151.42333 | 1503 ft | 81 kts | 108° |
| 2026-04-27 09:50 | -27.29997 | 151.42958 | 1502 ft | 81 kts | 102° |
| 2026-04-27 09:51 | -27.30076 | 151.43600 | 1508 ft | 84 kts | 99° |
| 2026-04-27 09:51 | -27.30164 | 151.44229 | 1507 ft | 80 kts | 100° |
| 2026-04-27 09:51 | -27.30243 | 151.44855 | 1502 ft | 84 kts | 99° |
| 2026-04-27 09:51 | -27.30342 | 151.45512 | 1510 ft | 85 kts | 100° |
| 2026-04-27 09:52 | -27.30431 | 151.46151 | 1505 ft | 81 kts | 101° |
| 2026-04-27 09:52 | -27.30515 | 151.46783 | 1509 ft | 83 kts | 101° |
| 2026-04-27 09:52 | -27.30605 | 151.47425 | 1510 ft | 81 kts | 101° |
| 2026-04-27 09:52 | -27.30697 | 151.48049 | 1507 ft | 81 kts | 101° |
| 2026-04-27 09:53 | -27.30796 | 151.48679 | 1505 ft | 82 kts | 101° |
| 2026-04-27 09:53 | -27.30894 | 151.49310 | 1508 ft | 81 kts | 101° |
| 2026-04-27 09:53 | -27.30985 | 151.49938 | 1506 ft | 83 kts | 100° |
| 2026-04-27 09:53 | -27.31083 | 151.50575 | 1510 ft | 82 kts | 101° |
| 2026-04-27 09:54 | -27.31172 | 151.51208 | 1508 ft | 82 kts | 100° |
| 2026-04-27 09:54 | -27.31266 | 151.51825 | 1503 ft | 82 kts | 101° |
| 2026-04-27 09:54 | -27.31374 | 151.52462 | 1506 ft | 82 kts | 102° |
| 2026-04-27 09:54 | -27.31458 | 151.53097 | 1505 ft | 81 kts | 101° |
| 2026-04-27 09:55 | -27.31545 | 151.53719 | 1510 ft | 82 kts | 100° |
| 2026-04-27 09:55 | -27.31642 | 151.54351 | 1507 ft | 82 kts | 101° |
| 2026-04-27 09:55 | -27.31833 | 151.55629 | 1512 ft | 85 kts | 101° |
| 2026-04-27 09:56 | -27.31931 | 151.56276 | 1791 ft | 83 kts | 102° |
| 2026-04-27 09:56 | -27.32033 | 151.56925 | 2158 ft | 82 kts | 102° |
| 2026-04-27 09:56 | -27.32134 | 151.57550 | 2361 ft | 82 kts | 101° |
| 2026-04-27 09:56 | -27.32220 | 151.58177 | 2445 ft | 79 kts | 101° |
| 2026-04-27 09:57 | -27.32306 | 151.58772 | 2477 ft | 78 kts | 101° |
| 2026-04-27 09:57 | -27.32399 | 151.59374 | 2529 ft | 78 kts | 102° |
| 2026-04-27 09:57 | -27.32488 | 151.59968 | 2894 ft | 75 kts | 102° |
| 2026-04-27 09:57 | -27.32702 | 151.60484 | 3230 ft | 71 kts | 118° |
| 2026-04-27 09:58 | -27.32961 | 151.60942 | 3389 ft | 68 kts | 118° |
| 2026-04-27 09:58 | -27.33212 | 151.61392 | 3456 ft | 68 kts | 118° |
| 2026-04-27 09:58 | -27.33459 | 151.61839 | 3481 ft | 67 kts | 118° |
| 2026-04-27 09:58 | -27.33705 | 151.62287 | 3495 ft | 67 kts | 117° |
| 2026-04-27 09:59 | -27.33943 | 151.62720 | 3501 ft | 66 kts | 118° |
| 2026-04-27 09:59 | -27.34185 | 151.63162 | 3507 ft | 67 kts | 120° |
| 2026-04-27 09:59 | -27.34429 | 151.63610 | 3507 ft | 67 kts | 120° |
| 2026-04-27 09:59 | -27.34674 | 151.64059 | 3506 ft | 67 kts | 120° |
| 2026-04-27 10:00 | -27.34921 | 151.64509 | 3508 ft | 68 kts | 120° |
| 2026-04-27 10:00 | -27.35171 | 151.64963 | 3508 ft | 68 kts | 120° |
| 2026-04-27 10:00 | -27.35422 | 151.65421 | 3509 ft | 69 kts | 120° |
| 2026-04-27 10:00 | -27.35675 | 151.65882 | 3508 ft | 69 kts | 120° |
| 2026-04-27 10:01 | -27.35925 | 151.66343 | 3504 ft | 69 kts | 120° |
| 2026-04-27 10:01 | -27.36173 | 151.66796 | 3505 ft | 69 kts | 121° |
| 2026-04-27 10:01 | -27.36426 | 151.67257 | 3510 ft | 69 kts | 120° |
| 2026-04-27 10:01 | -27.36678 | 151.67718 | 3516 ft | 69 kts | 120° |
| 2026-04-27 10:02 | -27.36929 | 151.68177 | 3509 ft | 69 kts | 120° |
| 2026-04-27 10:02 | -27.37180 | 151.68637 | 3510 ft | 69 kts | 120° |
| 2026-04-27 10:02 | -27.37432 | 151.69096 | 3506 ft | 69 kts | 120° |
| 2026-04-27 10:02 | -27.37680 | 151.69548 | 3509 ft | 69 kts | 120° |
| 2026-04-27 10:03 | -27.37933 | 151.70007 | 3510 ft | 69 kts | 120° |
| 2026-04-27 10:03 | -27.38191 | 151.70472 | 3423 ft | 84 kts | 128° |
| 2026-04-27 10:03 | -27.38633 | 151.71003 | 3344 ft | 95 kts | 151° |
| 2026-04-27 10:03 | -27.39232 | 151.71274 | 3348 ft | 92 kts | 161° |
| 2026-04-27 10:04 | -27.39841 | 151.71511 | 3331 ft | 93 kts | 161° |
| 2026-04-27 10:04 | -27.40451 | 151.71748 | 3321 ft | 93 kts | 161° |
| 2026-04-27 10:04 | -27.41059 | 151.71965 | 3316 ft | 93 kts | 164° |
| 2026-04-27 10:04 | -27.41687 | 151.72127 | 3313 ft | 93 kts | 169° |
| 2026-04-27 10:05 | -27.42325 | 151.72232 | 3311 ft | 93 kts | 175° |
| 2026-04-27 10:05 | -27.42916 | 151.71984 | 3311 ft | 93 kts | 224° |
| 2026-04-27 10:05 | -27.43148 | 151.71327 | 3310 ft | 93 kts | 271° |
| 2026-04-27 10:05 | -27.42875 | 151.70690 | 3311 ft | 93 kts | 316° |
| 2026-04-27 10:06 | -27.42376 | 151.70232 | 3310 ft | 92 kts | 322° |
| 2026-04-27 10:06 | -27.41787 | 151.69983 | 3309 ft | 93 kts | 2° |
| 2026-04-27 10:06 | -27.41224 | 151.70299 | 3310 ft | 93 kts | 50° |
| 2026-04-27 10:06 | -27.40821 | 151.70859 | 3310 ft | 93 kts | 34° |
| 2026-04-27 10:07 | -27.40239 | 151.71167 | 3309 ft | 93 kts | 38° |
| 2026-04-27 10:07 | -27.39951 | 151.71797 | 3310 ft | 93 kts | 86° |
| 2026-04-27 10:07 | -27.40039 | 151.72505 | 3311 ft | 93 kts | 102° |
| 2026-04-27 10:07 | -27.40180 | 151.73213 | 3309 ft | 93 kts | 103° |
| 2026-04-27 10:08 | -27.40326 | 151.73922 | 3311 ft | 93 kts | 103° |
| 2026-04-27 10:08 | -27.40453 | 151.74632 | 3310 ft | 93 kts | 101° |
| 2026-04-27 10:08 | -27.40574 | 151.75343 | 3310 ft | 93 kts | 101° |
| 2026-04-27 10:08 | -27.40689 | 151.76056 | 3309 ft | 93 kts | 95° |
| 2026-04-27 10:09 | -27.40480 | 151.76723 | 3311 ft | 92 kts | 48° |
| 2026-04-27 10:09 | -27.39914 | 151.77044 | 3311 ft | 93 kts | 13° |
| 2026-04-27 10:09 | -27.39283 | 151.77194 | 3310 ft | 93 kts | 11° |
| 2026-04-27 10:09 | -27.38650 | 151.77334 | 3310 ft | 93 kts | 11° |
| 2026-04-27 10:10 | -27.38017 | 151.77472 | 3310 ft | 93 kts | 11° |
| 2026-04-27 10:10 | -27.37384 | 151.77610 | 3310 ft | 93 kts | 11° |
| 2026-04-27 10:10 | -27.36751 | 151.77748 | 3310 ft | 93 kts | 11° |
| 2026-04-27 10:10 | -27.36118 | 151.77885 | 3310 ft | 93 kts | 11° |
| 2026-04-27 10:11 | -27.35486 | 151.78023 | 3310 ft | 93 kts | 11° |
| 2026-04-27 10:11 | -27.34854 | 151.78160 | 3310 ft | 93 kts | 11° |
| 2026-04-27 10:11 | -27.34220 | 151.78298 | 3310 ft | 93 kts | 11° |
| 2026-04-27 10:11 | -27.33602 | 151.78432 | 3310 ft | 93 kts | 11° |
| 2026-04-27 10:12 | -27.32963 | 151.78571 | 3310 ft | 93 kts | 11° |
| 2026-04-27 10:12 | -27.32330 | 151.78708 | 3310 ft | 93 kts | 11° |
| 2026-04-27 10:12 | -27.31697 | 151.78846 | 3310 ft | 93 kts | 11° |
| 2026-04-27 10:12 | -27.31064 | 151.78983 | 3310 ft | 93 kts | 11° |
| 2026-04-27 10:13 | -27.30431 | 151.79121 | 3310 ft | 93 kts | 11° |
| 2026-04-27 10:13 | -27.29798 | 151.79258 | 3310 ft | 93 kts | 11° |
| 2026-04-27 10:13 | -27.29165 | 151.79396 | 3310 ft | 93 kts | 11° |
| 2026-04-27 10:13 | -27.28746 | 151.79487 | 3310 ft | 93 kts | 11° |
| 2026-04-27 10:14 | -27.27898 | 151.79670 | 3310 ft | 93 kts | 11° |
| 2026-04-27 10:14 | -27.27266 | 151.79808 | 3310 ft | 93 kts | 11° |
| 2026-04-27 10:14 | -27.26846 | 151.79899 | 3310 ft | 93 kts | 11° |
| 2026-04-27 10:14 | -27.26212 | 151.80036 | 3310 ft | 93 kts | 11° |
| 2026-04-27 10:15 | -27.25578 | 151.80174 | 3310 ft | 93 kts | 11° |
| 2026-04-27 10:15 | -27.24944 | 151.80311 | 3310 ft | 93 kts | 11° |
| 2026-04-27 10:15 | -27.24311 | 151.80448 | 3310 ft | 93 kts | 11° |
| 2026-04-27 10:15 | -27.23677 | 151.80585 | 3310 ft | 93 kts | 11° |
| 2026-04-27 10:16 | -27.23043 | 151.80722 | 3310 ft | 93 kts | 11° |
| 2026-04-27 10:16 | -27.22411 | 151.80859 | 3310 ft | 93 kts | 11° |
| 2026-04-27 10:16 | -27.21777 | 151.80997 | 3310 ft | 93 kts | 11° |
| 2026-04-27 10:16 | -27.21145 | 151.81134 | 3310 ft | 93 kts | 11° |
| 2026-04-27 10:17 | -27.20511 | 151.81271 | 3310 ft | 93 kts | 11° |
| 2026-04-27 10:17 | -27.19878 | 151.81408 | 3310 ft | 93 kts | 11° |
| 2026-04-27 10:17 | -27.19244 | 151.81545 | 3310 ft | 93 kts | 11° |
| 2026-04-27 10:17 | -27.18619 | 151.81680 | 3310 ft | 93 kts | 11° |
| 2026-04-27 10:18 | -27.17985 | 151.81810 | 3309 ft | 93 kts | 6° |
| 2026-04-27 10:18 | -27.17386 | 151.81586 | 3310 ft | 93 kts | 319° |
| 2026-04-27 10:18 | -27.17099 | 151.80950 | 3311 ft | 93 kts | 283° |
| 2026-04-27 10:18 | -27.16977 | 151.80239 | 3310 ft | 93 kts | 280° |
| 2026-04-27 10:19 | -27.16864 | 151.79526 | 3310 ft | 93 kts | 280° |
| 2026-04-27 10:19 | -27.16756 | 151.78813 | 3310 ft | 93 kts | 277° |
| 2026-04-27 10:19 | -27.16938 | 151.78135 | 3310 ft | 93 kts | 233° |
| 2026-04-27 10:19 | -27.17363 | 151.77590 | 3310 ft | 93 kts | 227° |
| 2026-04-27 10:20 | -27.17797 | 151.77055 | 3310 ft | 93 kts | 228° |
| 2026-04-27 10:20 | -27.18223 | 151.76512 | 3310 ft | 93 kts | 229° |
| 2026-04-27 10:20 | -27.18643 | 151.75963 | 3310 ft | 93 kts | 230° |
| 2026-04-27 10:20 | -27.19057 | 151.75408 | 3310 ft | 93 kts | 230° |
| 2026-04-27 10:21 | -27.19466 | 151.74849 | 3310 ft | 93 kts | 231° |
| 2026-04-27 10:21 | -27.19871 | 151.74288 | 3310 ft | 93 kts | 231° |
| 2026-04-27 10:21 | -27.20273 | 151.73723 | 3310 ft | 93 kts | 231° |
| 2026-04-27 10:21 | -27.20673 | 151.73156 | 3310 ft | 93 kts | 232° |
| 2026-04-27 10:22 | -27.21071 | 151.72587 | 3310 ft | 93 kts | 232° |
| 2026-04-27 10:22 | -27.21461 | 151.72024 | 3310 ft | 92 kts | 233° |
| 2026-04-27 10:22 | -27.21664 | 151.71345 | 3311 ft | 93 kts | 261° |
| 2026-04-27 10:22 | -27.21750 | 151.70630 | 3310 ft | 92 kts | 263° |
| 2026-04-27 10:23 | -27.21830 | 151.69912 | 3310 ft | 92 kts | 263° |
| 2026-04-27 10:23 | -27.21909 | 151.69196 | 3310 ft | 92 kts | 263° |
| 2026-04-27 10:23 | -27.21989 | 151.68480 | 3310 ft | 92 kts | 263° |
| 2026-04-27 10:23 | -27.22069 | 151.67762 | 3310 ft | 93 kts | 263° |
| 2026-04-27 10:24 | -27.22360 | 151.67133 | 3311 ft | 93 kts | 220° |
| 2026-04-27 10:24 | -27.22959 | 151.66930 | 3309 ft | 93 kts | 174° |
| 2026-04-27 10:24 | -27.23578 | 151.67128 | 3310 ft | 92 kts | 160° |
| 2026-04-27 10:24 | -27.24184 | 151.67373 | 3310 ft | 93 kts | 160° |
| 2026-04-27 10:25 | -27.24788 | 151.67621 | 3310 ft | 92 kts | 160° |
| 2026-04-27 10:25 | -27.25393 | 151.67870 | 3310 ft | 92 kts | 160° |
| 2026-04-27 10:25 | -27.25996 | 151.68118 | 3310 ft | 92 kts | 160° |
| 2026-04-27 10:25 | -27.26625 | 151.68175 | 3309 ft | 93 kts | 198° |
| 2026-04-27 10:26 | -27.27089 | 151.67701 | 3310 ft | 93 kts | 245° |
| 2026-04-27 10:26 | -27.27086 | 151.66996 | 3310 ft | 93 kts | 294° |
| 2026-04-27 10:26 | -27.26710 | 151.66410 | 3311 ft | 92 kts | 310° |
| 2026-04-27 10:26 | -27.26292 | 151.65861 | 3310 ft | 92 kts | 311° |
| 2026-04-27 10:27 | -27.25871 | 151.65313 | 3310 ft | 92 kts | 311° |
| 2026-04-27 10:27 | -27.25451 | 151.64767 | 3310 ft | 92 kts | 311° |
| 2026-04-27 10:27 | -27.25036 | 151.64229 | 3310 ft | 92 kts | 311° |
| 2026-04-27 10:27 | -27.24615 | 151.63682 | 3310 ft | 92 kts | 311° |
| 2026-04-27 10:28 | -27.24195 | 151.63136 | 3310 ft | 92 kts | 311° |
| 2026-04-27 10:28 | -27.23774 | 151.62591 | 3310 ft | 92 kts | 311° |
| 2026-04-27 10:28 | -27.23353 | 151.62044 | 3309 ft | 93 kts | 311° |
| 2026-04-27 10:28 | -27.22930 | 151.61496 | 3310 ft | 93 kts | 311° |
| 2026-04-27 10:29 | -27.22508 | 151.60949 | 3310 ft | 92 kts | 311° |
| 2026-04-27 10:29 | -27.22088 | 151.60403 | 3310 ft | 92 kts | 311° |
| 2026-04-27 10:29 | -27.21667 | 151.59856 | 3310 ft | 92 kts | 311° |
| 2026-04-27 10:29 | -27.21247 | 151.59310 | 3310 ft | 92 kts | 311° |
| 2026-04-27 10:30 | -27.20827 | 151.58765 | 3310 ft | 92 kts | 311° |
| 2026-04-27 10:30 | -27.20407 | 151.58218 | 3310 ft | 92 kts | 311° |
| 2026-04-27 10:30 | -27.20024 | 151.57643 | 3309 ft | 93 kts | 292° |
| 2026-04-27 10:30 | -27.20028 | 151.56933 | 3311 ft | 93 kts | 253° |
| 2026-04-27 10:31 | -27.20236 | 151.56254 | 3092 ft | 91 kts | 249° |
| 2026-04-27 10:31 | -27.20415 | 151.55587 | 2767 ft | 89 kts | 265° |
| 2026-04-27 10:31 | -27.20433 | 151.54887 | 2614 ft | 90 kts | 269° |
| 2026-04-27 10:31 | -27.20581 | 151.54201 | 2537 ft | 91 kts | 251° |
| 2026-04-27 10:32 | -27.20777 | 151.53544 | 2187 ft | 89 kts | 252° |
| 2026-04-27 10:32 | -27.20963 | 151.52887 | 1830 ft | 88 kts | 252° |
| 2026-04-27 10:32 | -27.21146 | 151.52229 | 1642 ft | 89 kts | 253° |
| 2026-04-27 10:32 | -27.21325 | 151.51563 | 1561 ft | 89 kts | 253° |
| 2026-04-27 10:33 | -27.21500 | 151.50904 | 1541 ft | 82 kts | 253° |
| 2026-04-27 10:33 | -27.21667 | 151.50378 | 1520 ft | 62 kts | 252° |
| 2026-04-27 10:33 | -27.21788 | 151.49966 | 1509 ft | 53 kts | 254° |
| 2026-04-27 10:33 | -27.21899 | 151.49565 | 1505 ft | 54 kts | 253° |
| 2026-04-27 10:34 | -27.22007 | 151.49160 | 1503 ft | 54 kts | 253° |
| 2026-04-27 10:34 | -27.22132 | 151.48759 | 1524 ft | 59 kts | 239° |
| 2026-04-27 10:34 | -27.22528 | 151.48508 | 1872 ft | 78 kts | 189° |
| 2026-04-27 10:34 | -27.23065 | 151.48683 | 2250 ft | 86 kts | 144° |
| 2026-04-27 10:35 | -27.23362 | 151.49244 | 2621 ft | 85 kts | 103° |
| 2026-04-27 10:35 | -27.23477 | 151.49889 | 2835 ft | 84 kts | 99° |
| 2026-04-27 10:35 | -27.23535 | 151.50537 | 2944 ft | 83 kts | 92° |
| 2026-04-27 10:35 | -27.23555 | 151.51196 | 3296 ft | 85 kts | 92° |
| 2026-04-27 10:36 | -27.23572 | 151.51862 | 3526 ft | 85 kts | 91° |
| 2026-04-27 10:36 | -27.23581 | 151.52511 | 3623 ft | 84 kts | 90° |
| 2026-04-27 10:36 | -27.23588 | 151.53167 | 3665 ft | 84 kts | 90° |
| 2026-04-27 10:36 | -27.23594 | 151.53822 | 3682 ft | 84 kts | 90° |
| 2026-04-27 10:37 | -27.23601 | 151.54476 | 3691 ft | 84 kts | 90° |
| 2026-04-27 10:37 | -27.23608 | 151.55131 | 3695 ft | 84 kts | 91° |
| 2026-04-27 10:37 | -27.23616 | 151.55786 | 3698 ft | 84 kts | 91° |
| 2026-04-27 10:37 | -27.23625 | 151.56440 | 3699 ft | 83 kts | 91° |
| 2026-04-27 10:38 | -27.23635 | 151.57090 | 3699 ft | 84 kts | 92° |
| 2026-04-27 10:38 | -27.23820 | 151.57708 | 3700 ft | 84 kts | 115° |
| 2026-04-27 10:38 | -27.24068 | 151.58299 | 3700 ft | 84 kts | 116° |
| 2026-04-27 10:38 | -27.24324 | 151.58886 | 3700 ft | 84 kts | 116° |
| 2026-04-27 10:39 | -27.24588 | 151.59470 | 3700 ft | 84 kts | 117° |
| 2026-04-27 10:39 | -27.24859 | 151.60049 | 3700 ft | 84 kts | 118° |
| 2026-04-27 10:39 | -27.25137 | 151.60625 | 3700 ft | 84 kts | 119° |
| 2026-04-27 10:39 | -27.25423 | 151.61196 | 3700 ft | 84 kts | 120° |
| 2026-04-27 10:40 | -27.25725 | 151.61755 | 3699 ft | 84 kts | 128° |
| 2026-04-27 10:40 | -27.26124 | 151.62232 | 3700 ft | 84 kts | 136° |
| 2026-04-27 10:40 | -27.26553 | 151.62675 | 3700 ft | 84 kts | 139° |
| 2026-04-27 10:40 | -27.26991 | 151.63095 | 3700 ft | 84 kts | 140° |
| 2026-04-27 10:41 | -27.27443 | 151.63507 | 3700 ft | 84 kts | 141° |
| 2026-04-27 10:41 | -27.27904 | 151.63909 | 3700 ft | 84 kts | 142° |
| 2026-04-27 10:41 | -27.28370 | 151.64304 | 3700 ft | 84 kts | 143° |
| 2026-04-27 10:41 | -27.28840 | 151.64692 | 3700 ft | 84 kts | 144° |
| 2026-04-27 10:42 | -27.29312 | 151.65076 | 3700 ft | 84 kts | 144° |
| 2026-04-27 10:42 | -27.29786 | 151.65457 | 3700 ft | 84 kts | 144° |
| 2026-04-27 10:42 | -27.30260 | 151.65836 | 3700 ft | 84 kts | 144° |
| 2026-04-27 10:42 | -27.30736 | 151.66214 | 3656 ft | 83 kts | 144° |
| 2026-04-27 10:43 | -27.31208 | 151.66591 | 3547 ft | 83 kts | 144° |
| 2026-04-27 10:43 | -27.31679 | 151.66966 | 3434 ft | 83 kts | 144° |
| 2026-04-27 10:43 | -27.32149 | 151.67337 | 3322 ft | 83 kts | 145° |
| 2026-04-27 10:43 | -27.32619 | 151.67708 | 3209 ft | 82 kts | 145° |
| 2026-04-27 10:44 | -27.33089 | 151.68077 | 3097 ft | 82 kts | 145° |
| 2026-04-27 10:44 | -27.33558 | 151.68445 | 2986 ft | 82 kts | 145° |
| 2026-04-27 10:44 | -27.34025 | 151.68812 | 2874 ft | 82 kts | 145° |
| 2026-04-27 10:44 | -27.34493 | 151.69179 | 2763 ft | 82 kts | 145° |
| 2026-04-27 10:45 | -27.34960 | 151.69545 | 2652 ft | 82 kts | 145° |
| 2026-04-27 10:45 | -27.35420 | 151.69906 | 2539 ft | 82 kts | 145° |
| 2026-04-27 10:45 | -27.35885 | 151.70271 | 2430 ft | 81 kts | 145° |
| 2026-04-27 10:45 | -27.36349 | 151.70635 | 2321 ft | 81 kts | 145° |
| 2026-04-27 10:46 | -27.36812 | 151.70998 | 2209 ft | 81 kts | 145° |
| 2026-04-27 10:46 | -27.37275 | 151.71361 | 2100 ft | 81 kts | 145° |
| 2026-04-27 10:46 | -27.37736 | 151.71723 | 1990 ft | 81 kts | 145° |
| 2026-04-27 10:46 | -27.38197 | 151.72085 | 1878 ft | 81 kts | 145° |
| 2026-04-27 10:47 | -27.38658 | 151.72447 | 1771 ft | 81 kts | 145° |
| 2026-04-27 10:47 | -27.39118 | 151.72808 | 1665 ft | 80 kts | 145° |
| 2026-04-27 10:47 | -27.39571 | 151.73164 | 1554 ft | 80 kts | 145° |
| 2026-04-27 10:47 | -27.40013 | 151.73512 | 1446 ft | 70 kts | 146° |
| 2026-04-27 10:48 | -27.40343 | 151.73770 | 1364 ft | 41 kts | 152° |
| 2026-04-27 10:48 | -27.40519 | 151.73835 | 1398 ft | 23 kts | 193° |
| 2026-04-27 10:48 | -27.40705 | 151.73796 | 1389 ft | 33 kts | 190° |
| 2026-04-27 10:48 | -27.40967 | 151.73765 | 1380 ft | 41 kts | 182° |
| 2026-04-27 10:49 | -27.41185 | 151.73758 | 1365 ft | 19 kts | 184° |
| 2026-04-27 10:49 | -27.41271 | 151.73756 | 1354 ft | 8 kts | 187° |
| 2026-04-27 10:49 | -27.41320 | 151.73753 | 1345 ft | 5 kts | 184° |
| 2026-04-27 10:49 | -27.41337 | 151.73765 | 1342 ft | 0 kts | 100° |
| 2026-04-27 10:50 | -27.41338 | 151.73765 | 1339 ft | 0 kts | 98° |